createdAt,value
2022-11-25T00:07:59.520Z,8.6
2022-11-25T00:10:03.153Z,8.5
2022-11-25T00:12:06.738Z,8.5
2022-11-25T00:14:13.460Z,8.5
2022-11-25T00:16:17.120Z,8.6
2022-11-25T00:18:20.644Z,8.6
2022-11-25T00:21:27.558Z,8.6
2022-11-25T00:23:33.366Z,8.8
2022-11-25T00:25:34.789Z,8.7
2022-11-25T00:27:41.479Z,8.8
2022-11-25T00:31:48.713Z,8.7
2022-11-25T00:33:52.267Z,8.7
2022-11-25T00:37:59.470Z,8.4
2022-11-25T00:40:03.111Z,8.6
2022-11-25T00:42:09.782Z,8.4
2022-11-25T00:44:13.369Z,8.4
2022-11-25T00:46:17.027Z,8.3
2022-11-25T00:48:20.552Z,8.1
2022-11-25T00:56:38.066Z,8
2022-11-25T00:58:41.657Z,8.1
2022-11-25T01:02:48.871Z,7.9
2022-11-25T01:04:52.469Z,7.8
2022-11-25T01:06:56.111Z,8.1
2022-11-25T01:08:59.686Z,7.9
2022-11-25T01:11:06.383Z,7.9
2022-11-25T01:13:09.981Z,8
2022-11-25T01:15:13.732Z,8
2022-11-25T01:17:43.733Z,7.9
2022-11-25T01:19:47.343Z,8
2022-11-25T01:21:50.970Z,7.9
2022-11-25T01:23:57.624Z,7.7
2022-11-25T01:26:01.222Z,7.9
2022-11-25T01:28:04.860Z,7.7
2022-11-25T01:30:08.469Z,7.9
2022-11-25T01:32:12.074Z,7.8
2022-11-25T01:34:15.680Z,7.9
2022-11-25T01:36:19.341Z,7.6
2022-11-25T01:38:25.977Z,7.7
2022-11-25T01:40:29.603Z,7.7
2022-11-25T01:42:33.189Z,7.8
2022-11-25T01:44:36.930Z,7.6
2022-11-25T01:46:40.420Z,7.9
2022-11-25T01:48:44.016Z,7.7
2022-11-25T01:50:47.652Z,7.7
2022-11-25T01:52:54.352Z,7.8
2022-11-25T01:54:57.938Z,7.9
2022-11-25T01:57:01.611Z,7.6
2022-11-25T01:59:05.182Z,7.8
2022-11-25T02:01:08.869Z,7.6
2022-11-25T02:03:12.432Z,7.6
2022-11-25T02:05:15.995Z,7.8
2022-11-25T02:07:22.748Z,7.7
2022-11-25T02:11:29.904Z,7.6
2022-11-25T02:12:33.251Z,7.9
2022-11-25T02:14:37.061Z,7.9
2022-11-25T02:16:40.473Z,7.7
2022-11-25T02:18:44.061Z,8
2022-11-25T02:20:50.758Z,8
2022-11-25T02:22:54.381Z,7.8
2022-11-25T02:24:57.950Z,8.1
2022-11-25T02:27:01.727Z,8
2022-11-25T02:29:05.188Z,7.8
2022-11-25T02:33:12.403Z,7.8
2022-11-25T02:35:19.055Z,8.1
2022-11-25T02:37:22.812Z,8
2022-11-25T02:39:26.301Z,7.9
2022-11-25T02:41:29.886Z,8.1
2022-11-25T02:43:33.482Z,8.1
2022-11-25T02:45:37.214Z,7.9
2022-11-25T02:47:40.705Z,8.1
2022-11-25T02:49:47.414Z,8.1
2022-11-25T02:55:58.205Z,8
2022-11-25T02:58:01.789Z,8.2
2022-11-25T03:02:09.104Z,7.9
2022-11-25T03:04:15.734Z,8.1
2022-11-25T03:06:19.359Z,8.1
2022-11-25T03:08:22.940Z,7.8
2022-11-25T03:09:26.276Z,8.1
2022-11-25T03:11:29.928Z,7.8
2022-11-25T03:13:33.508Z,7.9
2022-11-25T03:15:37.149Z,8
2022-11-25T03:17:43.801Z,8.1
2022-11-25T03:19:47.401Z,7.8
2022-11-25T03:21:51.013Z,7.7
2022-11-25T03:23:54.633Z,7.7
2022-11-25T03:25:58.220Z,7.7
2022-11-25T03:28:01.873Z,8.1
2022-11-25T03:30:05.470Z,7.7
2022-11-25T03:32:12.160Z,7.8
2022-11-25T03:36:19.336Z,8.1
2022-11-25T03:38:22.957Z,7.8
2022-11-25T03:40:26.565Z,8.2
2022-11-25T03:42:30.171Z,7.8
2022-11-25T03:44:33.903Z,7.9
2022-11-25T03:46:40.461Z,8.2
2022-11-25T03:48:44.035Z,7.8
2022-11-25T03:50:47.659Z,8.2
2022-11-25T03:52:51.258Z,8.1
2022-11-25T03:54:54.892Z,7.8
2022-11-25T03:56:58.482Z,8.2
2022-11-25T03:59:02.129Z,8
2022-11-25T04:03:12.371Z,8
2022-11-25T04:06:19.317Z,7.9
2022-11-25T04:08:23.027Z,7.9
2022-11-25T04:10:26.536Z,7.9
2022-11-25T04:12:30.179Z,8
2022-11-25T04:14:37.137Z,7.9
2022-11-25T04:16:40.559Z,7.9
2022-11-25T04:20:47.716Z,8.1
2022-11-25T04:22:51.316Z,8
2022-11-25T04:26:58.565Z,8
2022-11-25T04:29:05.220Z,8.2
2022-11-25T04:31:08.861Z,8
2022-11-25T04:33:12.443Z,8.2
2022-11-25T04:35:16.053Z,8.3
2022-11-25T04:37:19.695Z,8.3
2022-11-25T04:39:23.309Z,8
2022-11-25T04:41:26.927Z,7.9
2022-11-25T04:43:33.590Z,8.1
2022-11-25T04:46:06.368Z,8
2022-11-25T04:47:40.815Z,8.3
2022-11-25T04:49:44.443Z,7.9
2022-11-25T04:51:48.026Z,8.2
2022-11-25T04:53:51.652Z,8
2022-11-25T05:00:05.589Z,8.3
2022-11-25T05:02:09.252Z,7.9
2022-11-25T05:04:39.275Z,8
2022-11-25T05:06:42.832Z,8
2022-11-25T05:08:46.492Z,8.3
2022-11-25T05:10:53.132Z,8.3
2022-11-25T05:12:56.746Z,8.1
2022-11-25T05:15:00.394Z,8.2
2022-11-25T05:17:04.053Z,7.8
2022-11-25T05:19:07.608Z,8
2022-11-25T05:21:11.206Z,7.9
2022-11-25T05:23:14.838Z,8.1
2022-11-25T05:25:23.088Z,7.8
2022-11-25T05:27:26.688Z,8.2
2022-11-25T05:29:30.228Z,8.2
2022-11-25T05:31:33.874Z,8.3
2022-11-25T05:33:37.444Z,8.3
2022-11-25T05:35:41.050Z,8.3
2022-11-25T05:37:44.714Z,8.1
2022-11-25T05:56:23.351Z,8
2022-11-25T05:58:26.977Z,8.3
2022-11-25T05:59:30.303Z,8.5
2022-11-25T06:03:37.663Z,8.6
2022-11-25T06:05:41.205Z,8.3
2022-11-25T06:07:47.958Z,8.3
2022-11-25T06:09:51.482Z,8.4
2022-11-25T06:11:55.048Z,8.3
2022-11-25T06:13:58.699Z,8.2
2022-11-25T06:16:07.571Z,8.3
2022-11-25T06:18:05.861Z,8.5
2022-11-25T06:20:09.497Z,8.5
2022-11-25T06:22:16.168Z,8.1
2022-11-25T06:24:19.777Z,8.2
2022-11-25T06:26:23.404Z,8.4
2022-11-25T06:28:26.989Z,8
2022-11-25T06:30:30.639Z,8.3
2022-11-25T06:34:38.273Z,8.2
2022-11-25T06:36:44.531Z,8.1
2022-11-25T06:38:48.153Z,8.3
2022-11-25T06:40:54.055Z,8.4
2022-11-25T06:42:55.392Z,8
2022-11-25T06:44:59.036Z,8
2022-11-25T06:47:02.656Z,8
2022-11-25T06:51:12.917Z,8.4
2022-11-25T06:53:21.231Z,8.4
2022-11-25T06:55:20.149Z,8.4
2022-11-25T06:56:23.503Z,7.9
2022-11-25T06:58:35.979Z,8.4
2022-11-25T07:00:30.690Z,8.3
2022-11-25T07:02:40.747Z,8
2022-11-25T07:04:41.009Z,8
2022-11-25T07:08:48.244Z,8.2
2022-11-25T07:10:51.870Z,8.4
2022-11-25T07:12:55.473Z,7.9
2022-11-25T07:14:59.073Z,8.1
2022-11-25T07:17:04.233Z,8.1
2022-11-25T07:19:09.336Z,8.1
2022-11-25T07:23:16.576Z,8.1
2022-11-25T07:29:54.141Z,8
2022-11-25T07:31:33.020Z,8
2022-11-25T07:33:37.859Z,7.9
2022-11-25T07:35:41.345Z,7.9
2022-11-25T07:37:44.958Z,7.9
2022-11-25T07:39:48.576Z,7.9
2022-11-25T07:41:52.164Z,7.9
2022-11-25T07:48:06.067Z,8.2
2022-11-25T07:50:09.681Z,8.2
2022-11-25T07:52:13.311Z,8.2
2022-11-25T07:53:16.639Z,8.2
2022-11-25T07:55:20.258Z,8.3
2022-11-25T08:03:37.800Z,8.4
2022-11-25T08:05:41.401Z,8.4
2022-11-25T08:09:48.610Z,8.5
2022-11-25T08:11:52.218Z,8.5
2022-11-25T08:13:55.835Z,8.5
2022-11-25T08:16:02.670Z,8.6
2022-11-25T08:18:06.125Z,8.6
2022-11-25T08:20:09.782Z,8.7
2022-11-25T08:22:13.364Z,8.6
2022-11-25T08:24:16.971Z,8.7
2022-11-25T08:26:20.616Z,8.7
2022-11-25T08:28:24.217Z,8.7
2022-11-25T08:30:30.917Z,8.7
2022-11-25T08:32:34.538Z,8.8
2022-11-25T08:34:38.133Z,8.8
2022-11-25T08:38:45.351Z,9.2
2022-11-25T08:44:59.249Z,11.8
2022-11-25T08:49:06.520Z,11.9
2022-11-25T08:51:30.764Z,12.5
2022-11-25T08:57:44.729Z,13.1
2022-11-25T08:59:48.301Z,13
2022-11-25T09:01:51.974Z,13.4
2022-11-25T09:03:55.523Z,13.5
2022-11-25T09:08:02.763Z,14.1
2022-11-25T09:10:06.311Z,14.1
2022-11-25T09:12:12.933Z,14
2022-11-25T09:14:16.534Z,14
2022-11-25T09:16:20.162Z,14.1
2022-11-25T09:18:23.672Z,14.2
2022-11-25T09:20:27.265Z,14.5
2022-11-25T09:22:30.828Z,14.4
2022-11-25T09:24:34.399Z,14.7
2022-11-25T09:26:41.973Z,14
2022-11-25T09:28:44.656Z,14.2
2022-11-25T09:32:51.789Z,14.3
2022-11-25T09:43:12.651Z,14.2
2022-11-25T09:46:19.637Z,13.8
2022-11-25T09:48:23.088Z,13.6
2022-11-25T09:50:26.633Z,13.5
2022-11-25T09:52:30.171Z,13.4
2022-11-25T09:54:36.847Z,12.7
2022-11-25T09:56:40.409Z,12.8
2022-11-25T09:58:43.960Z,12.9
2022-11-25T10:00:47.505Z,13.1
2022-11-25T10:02:51.259Z,13.2
2022-11-25T10:04:54.566Z,13
2022-11-25T10:06:58.193Z,12.6
2022-11-25T10:09:04.833Z,12.9
2022-11-25T10:13:11.845Z,12.9
2022-11-25T10:19:22.441Z,12.9
2022-11-25T10:21:25.966Z,13.2
2022-11-25T10:23:32.535Z,13.5
2022-11-25T10:25:36.102Z,13.6
2022-11-25T10:27:39.611Z,13.3
2022-11-25T10:29:43.980Z,13.3
2022-11-25T10:33:50.171Z,13.8
2022-11-25T10:35:53.700Z,14.2
2022-11-25T10:38:00.289Z,14.4
2022-11-25T10:40:03.813Z,14.9
2022-11-25T10:42:07.305Z,14.9
2022-11-25T10:43:10.592Z,15.2
2022-11-25T10:45:14.132Z,15.4
2022-11-25T10:47:17.705Z,15.5
2022-11-25T10:49:21.123Z,15.1
2022-11-25T10:51:27.702Z,15
2022-11-25T10:53:31.203Z,14.9
2022-11-25T10:55:34.674Z,14.8
2022-11-25T10:57:38.199Z,14.5
2022-11-25T10:59:41.680Z,14.9
2022-11-25T11:01:45.272Z,14.9
2022-11-25T11:03:48.668Z,15.2
2022-11-25T11:05:55.242Z,15.1
2022-11-25T11:07:58.779Z,15.3
2022-11-25T11:12:05.606Z,15.5
2022-11-25T11:14:09.090Z,15.9
2022-11-25T11:16:12.625Z,15.6
2022-11-25T11:18:16.013Z,15.8
2022-11-25T11:20:24.166Z,15.8
2022-11-25T11:22:27.584Z,15.7
2022-11-25T11:24:31.060Z,16.1
2022-11-25T11:26:34.495Z,16.2
2022-11-25T11:28:37.962Z,16.3
2022-11-25T11:30:41.430Z,15.5
2022-11-25T11:32:44.878Z,16
2022-11-25T11:34:51.475Z,14.2
2022-11-25T11:36:54.898Z,13.5
2022-11-25T11:38:58.380Z,12.8
2022-11-25T11:40:01.821Z,12.7
2022-11-25T11:48:18.675Z,13.8
2022-11-25T11:52:25.616Z,14.2
2022-11-25T11:58:36.054Z,12.6
2022-11-25T12:00:39.571Z,12.2
2022-11-25T12:02:46.169Z,11.9
2022-11-25T12:08:56.664Z,11.8
2022-11-25T12:15:07.216Z,12.3
2022-11-25T12:19:17.451Z,13
2022-11-25T12:21:20.883Z,13.2
2022-11-25T12:23:24.406Z,12.2
2022-11-25T12:25:27.919Z,12.7
2022-11-25T12:27:31.457Z,14.3
2022-11-25T12:29:34.986Z,14.8
2022-11-25T12:31:41.668Z,14.6
2022-11-25T12:33:45.128Z,13.8
2022-11-25T12:35:48.667Z,12.6
2022-11-25T12:38:07.086Z,12.1
2022-11-25T12:40:10.686Z,12.2
2022-11-25T12:44:20.696Z,12
2022-11-25T12:46:24.286Z,12
2022-11-25T12:48:27.747Z,12.1
2022-11-25T12:50:31.297Z,12.2
2022-11-25T12:54:38.654Z,12.3
2022-11-25T12:56:41.832Z,12.2
2022-11-25T12:58:48.494Z,12
2022-11-25T13:00:52.031Z,12
2022-11-25T13:02:55.730Z,11.9
2022-11-25T13:05:18.426Z,11.9
2022-11-25T13:07:02.631Z,11.8
2022-11-25T13:09:06.180Z,11.6
2022-11-25T13:11:10.147Z,11.5
2022-11-25T13:13:18.207Z,11.4
2022-11-25T13:15:20.093Z,11.4
2022-11-25T13:17:23.924Z,11.3
2022-11-25T13:19:26.983Z,11.4
2022-11-25T13:25:37.597Z,11.4
2022-11-25T13:31:54.664Z,11.5
2022-11-25T13:32:54.618Z,11.4
2022-11-25T13:34:58.162Z,11.4
2022-11-25T13:37:01.712Z,11.4
2022-11-25T13:39:05.262Z,11.4
2022-11-25T13:41:16.594Z,11.4
2022-11-25T13:43:21.440Z,11.4
2022-11-25T13:45:38.396Z,11.4
2022-11-25T13:47:22.610Z,11.5
2022-11-25T13:49:26.151Z,11.5
2022-11-25T13:51:29.721Z,11.6
2022-11-25T13:53:33.269Z,11.5
2022-11-25T13:55:39.891Z,11.6
2022-11-25T13:57:43.418Z,11.6
2022-11-25T13:59:47.003Z,11.5
2022-11-25T14:01:50.580Z,11.4
2022-11-25T14:05:57.673Z,11.2
2022-11-25T14:08:01.319Z,11.1
2022-11-25T14:10:07.869Z,11.1
2022-11-25T14:12:11.380Z,11.1
2022-11-25T14:14:14.947Z,11.1
2022-11-25T14:16:18.598Z,11.2
2022-11-25T14:18:44.404Z,11.2
2022-11-25T14:20:25.611Z,11.2
2022-11-25T14:22:29.164Z,11.4
2022-11-25T14:24:35.790Z,11.5
2022-11-25T14:26:49.644Z,11.5
2022-11-25T14:28:42.915Z,11.5
2022-11-25T14:29:46.203Z,11.4
2022-11-25T14:31:49.865Z,11.3
2022-11-25T14:35:56.871Z,11.1
2022-11-25T14:38:03.553Z,11
2022-11-25T14:40:07.123Z,11
2022-11-25T14:42:10.647Z,11
2022-11-25T14:44:14.225Z,11.1
2022-11-25T14:46:17.831Z,11.2
2022-11-25T14:48:21.353Z,11.3
2022-11-25T14:50:35.060Z,11.3
2022-11-25T14:52:31.569Z,11.3
2022-11-25T14:54:35.530Z,11.2
2022-11-25T15:00:45.836Z,11
2022-11-25T15:06:59.616Z,10.7
2022-11-25T15:11:06.711Z,10.6
2022-11-25T15:13:10.323Z,10.5
2022-11-25T15:15:13.856Z,10.4
2022-11-25T15:17:17.472Z,10.4
2022-11-25T15:21:27.664Z,10.3
2022-11-25T15:26:38.143Z,10.3
2022-11-25T15:28:41.742Z,10.2
2022-11-25T15:30:45.292Z,10.2
2022-11-25T15:32:48.873Z,10.2
2022-11-25T15:34:55.533Z,10.2
2022-11-25T15:36:59.125Z,10.2
2022-11-25T15:39:02.687Z,10.1
2022-11-25T15:41:06.268Z,10
2022-11-25T15:43:09.834Z,10
2022-11-25T15:45:13.431Z,9.9
2022-11-25T15:47:17.000Z,9.9
2022-11-25T15:49:23.666Z,9.9
2022-11-25T15:51:27.269Z,9.6
2022-11-25T15:53:33.467Z,9.8
2022-11-25T15:55:34.421Z,9.8
2022-11-25T15:57:37.994Z,9.7
2022-11-25T15:59:41.600Z,9.5
2022-11-25T16:01:45.227Z,9.5
2022-11-25T16:03:51.845Z,9.6
2022-11-25T16:05:55.453Z,9.6
2022-11-25T16:07:59.033Z,9.6
2022-11-25T16:10:02.607Z,9.5
2022-11-25T16:12:06.197Z,9.2
2022-11-25T16:18:39.160Z,9.3
2022-11-25T16:20:23.634Z,9.4
2022-11-25T16:22:27.224Z,9.1
2022-11-25T16:24:52.400Z,9
2022-11-25T16:28:58.723Z,9.2
2022-11-25T16:33:08.975Z,8.8
2022-11-25T16:35:12.542Z,9.1
2022-11-25T16:37:16.160Z,9
2022-11-25T16:39:19.769Z,8.7
2022-11-25T16:41:23.342Z,8.7
2022-11-25T16:43:26.951Z,8.9
2022-11-25T16:45:33.666Z,8.9
2022-11-25T16:47:37.218Z,8.7
2022-11-25T16:49:40.804Z,8.6
2022-11-25T16:51:44.380Z,8.6
2022-11-25T16:53:47.984Z,8.7
2022-11-25T16:55:51.570Z,8.6
2022-11-25T16:57:55.153Z,8.5
2022-11-25T17:00:01.878Z,8.6
2022-11-25T17:02:05.657Z,8.4
2022-11-25T17:04:09.058Z,8.6
2022-11-25T17:06:17.091Z,8.5
2022-11-25T17:08:16.273Z,8.5
2022-11-25T17:10:19.937Z,8.5
2022-11-25T17:12:23.433Z,8.4
2022-11-25T17:19:42.191Z,8.2
2022-11-25T17:25:52.992Z,7.9
2022-11-25T17:32:06.934Z,8.1
2022-11-25T17:38:17.696Z,7.7
2022-11-25T17:42:27.984Z,8
2022-11-25T17:44:31.557Z,7.9
2022-11-25T17:46:35.197Z,7.8
2022-11-25T17:48:38.777Z,7.7
2022-11-25T17:50:42.382Z,7.8
2022-11-25T17:52:46.017Z,7.9
2022-11-25T17:54:49.587Z,8
2022-11-25T17:56:56.299Z,7.7
2022-11-25T17:58:59.901Z,7.6
2022-11-25T18:01:03.782Z,7.6
2022-11-25T18:03:07.182Z,7.7
2022-11-25T18:05:10.724Z,7.5
2022-11-25T18:07:14.443Z,7.6
2022-11-25T18:09:17.959Z,7.8
2022-11-25T18:11:24.641Z,7.4
2022-11-25T18:13:29.447Z,7.7
2022-11-25T18:18:43.175Z,7.4
2022-11-25T18:20:42.445Z,7.4
2022-11-25T18:22:46.948Z,7.3
2022-11-25T18:24:52.762Z,7.2
2022-11-25T18:27:18.537Z,7.3
2022-11-25T18:28:59.995Z,7.4
2022-11-25T18:31:03.725Z,7.3
2022-11-25T18:33:07.224Z,7.3
2022-11-25T18:37:14.459Z,7.3
2022-11-25T18:39:21.200Z,7.5
2022-11-25T18:43:28.412Z,7.4
2022-11-25T18:45:32.094Z,7.3
2022-11-25T18:49:39.305Z,7.3
2022-11-25T18:51:42.951Z,7.2
2022-11-25T18:53:49.848Z,7.1
2022-11-25T18:55:53.275Z,7.4
2022-11-25T18:57:56.898Z,7.1
2022-11-25T19:00:24.863Z,7.2
2022-11-25T19:02:04.346Z,7.1
2022-11-25T19:04:07.780Z,7.3
2022-11-25T19:08:18.090Z,7
2022-11-25T19:10:21.675Z,7.1
2022-11-25T19:12:26.617Z,6.8
2022-11-25T19:13:28.662Z,6.9
2022-11-25T19:15:32.295Z,6.9
2022-11-25T19:17:35.906Z,7
2022-11-25T19:19:39.565Z,7
2022-11-25T19:21:46.228Z,7
2022-11-25T19:23:49.875Z,6.9
2022-11-25T19:25:53.476Z,6.9
2022-11-25T19:27:57.090Z,6.6
2022-11-25T19:30:00.743Z,7
2022-11-25T19:32:18.679Z,6.9
2022-11-25T19:34:07.964Z,6.6
2022-11-25T19:38:18.280Z,6.6
2022-11-25T19:40:36.131Z,6.8
2022-11-25T19:42:25.483Z,6.9
2022-11-25T19:44:29.159Z,6.7
2022-11-25T19:46:46.315Z,6.6
2022-11-25T19:48:36.393Z,6.8
2022-11-25T19:50:43.098Z,6.7
2022-11-25T19:52:46.737Z,6.7
2022-11-25T19:54:50.377Z,6.5
2022-11-25T19:56:53.986Z,6.6
2022-11-25T19:58:57.628Z,6.7
2022-11-25T20:01:01.408Z,6.8
2022-11-25T20:03:04.885Z,6.6
2022-11-25T20:05:11.568Z,6.6
2022-11-25T20:07:15.211Z,6.7
2022-11-25T20:09:18.828Z,6.5
2022-11-25T20:11:37.372Z,6.8
2022-11-25T20:15:44.622Z,6.5
2022-11-25T20:21:58.570Z,6.5
2022-11-25T20:28:09.453Z,6.5
2022-11-25T20:30:13.057Z,6.6
2022-11-25T20:32:19.846Z,6.4
2022-11-25T20:34:23.373Z,6.5
2022-11-25T20:36:27.031Z,6.6
2022-11-25T20:38:30.664Z,6.2
2022-11-25T20:40:34.270Z,6.2
2022-11-25T20:42:37.887Z,6.2
2022-11-25T20:44:41.540Z,6.3
2022-11-25T20:46:48.247Z,6.1
2022-11-25T20:48:51.926Z,6.1
2022-11-25T20:50:55.480Z,6.2
2022-11-25T20:52:59.138Z,6.1
2022-11-25T20:57:06.388Z,6.1
2022-11-25T20:59:10.072Z,6.2
2022-11-25T21:01:16.802Z,6
2022-11-25T21:03:20.300Z,5.9
2022-11-25T21:05:23.939Z,6.2
2022-11-25T21:06:27.278Z,6.1
2022-11-25T21:08:30.924Z,6.1
2022-11-25T21:10:34.531Z,6.2
2022-11-25T21:12:38.182Z,5.8
2022-11-25T21:14:44.887Z,6.1
2022-11-25T21:16:48.593Z,6
2022-11-25T21:18:52.156Z,5.7
2022-11-25T21:20:55.785Z,5.9
2022-11-25T21:22:59.415Z,5.7
2022-11-25T21:25:03.114Z,5.7
2022-11-25T21:27:11.242Z,5.6
2022-11-25T21:29:13.376Z,5.9
2022-11-25T21:33:20.645Z,5.8
2022-11-25T21:35:24.262Z,5.8
2022-11-25T21:37:27.997Z,5.6
2022-11-25T21:39:31.562Z,5.6
2022-11-25T21:41:35.223Z,5.7
2022-11-25T21:43:41.911Z,5.7
2022-11-25T21:45:45.568Z,5.6
2022-11-25T21:47:49.160Z,5.6
2022-11-25T21:49:52.819Z,5.6
2022-11-25T21:51:56.497Z,5.5
2022-11-25T21:54:00.147Z,5.6
2022-11-25T21:56:03.767Z,5.6
2022-11-25T21:58:10.435Z,5.5
2022-11-25T22:00:14.110Z,5.5
2022-11-25T22:02:17.753Z,5.6
2022-11-25T22:03:21.236Z,5.8
2022-11-25T22:05:28.733Z,5.8
2022-11-25T22:07:30.915Z,5.6
2022-11-25T22:09:32.015Z,5.9
2022-11-25T22:13:42.386Z,5.9
2022-11-25T22:15:46.040Z,5.8
2022-11-25T22:17:49.681Z,6
2022-11-25T22:19:53.362Z,5.8
2022-11-25T22:22:00.285Z,5.9
2022-11-25T22:24:00.610Z,5.8
2022-11-25T22:26:07.325Z,5.8
2022-11-25T22:28:10.922Z,5.9
2022-11-25T22:30:14.585Z,5.7
2022-11-25T22:32:18.209Z,5.7
2022-11-25T22:34:21.824Z,5.9
2022-11-25T22:36:25.507Z,5.7
2022-11-25T22:38:29.151Z,5.7
2022-11-25T22:40:35.833Z,5.7
2022-11-25T22:42:39.455Z,5.8
2022-11-25T22:44:43.090Z,5.6
2022-11-25T22:46:46.733Z,5.6
2022-11-25T22:50:54.013Z,5.6
2022-11-25T22:52:57.631Z,5.8
2022-11-25T22:55:04.357Z,5.6
2022-11-25T22:57:07.983Z,5.8
2022-11-25T22:59:11.650Z,5.8
2022-11-25T23:00:14.969Z,5.8
2022-11-25T23:04:22.248Z,5.7
2022-11-25T23:06:25.913Z,5.7
2022-11-25T23:08:32.584Z,5.6
2022-11-25T23:10:36.232Z,5.7
2022-11-25T23:12:39.882Z,5.6
2022-11-25T23:14:45.081Z,5.7
2022-11-25T23:16:48.752Z,5.7
2022-11-25T23:18:52.308Z,5.8
2022-11-25T23:20:55.951Z,5.7
2022-11-25T23:23:02.664Z,5.7
2022-11-25T23:25:06.314Z,5.7
2022-11-25T23:27:09.943Z,5.6
2022-11-25T23:29:13.623Z,5.8
2022-11-25T23:31:17.426Z,5.6
2022-11-25T23:33:20.928Z,5.6
2022-11-25T23:35:24.584Z,5.7
2022-11-25T23:37:31.244Z,5.6
2022-11-25T23:39:34.925Z,5.5
2022-11-25T23:41:38.564Z,5.6
2022-11-25T23:43:42.249Z,5.5
2022-11-25T23:45:45.975Z,5.5
2022-11-25T23:47:49.541Z,5.5
2022-11-25T23:49:53.132Z,5.4
2022-11-25T23:52:04.662Z,5.5
2022-11-25T23:54:03.504Z,5.6
2022-11-25T23:56:07.170Z,5.6
